Time,TemperatureF,DewpointF,PressureIn,WindDirection,WindDirectionDegrees,WindSpeedMPH,WindSpeedGustMPH,Humidity,HourlyPrecipIn,Conditions,Clouds,dailyrainin,SoftwareType,DateUTC
2013-09-01 00:02:00,64.0,63.0,29.86,WSW,250,0.0,0.0,97,0.00,,,0.00,weatherlink.com 1.10,2013-09-01 04:02:00,
2013-09-01 00:17:00,63.2,62.0,29.86,WSW,250,0.0,0.0,97,0.00,,,0.00,weatherlink.com 1.10,2013-09-01 04:17:00,
2013-09-01 00:32:00,63.7,63.0,29.86,WSW,250,0.0,0.0,97,0.00,,,0.00,weatherlink.com 1.10,2013-09-01 04:32:00,
2013-09-01 00:47:00,63.8,63.0,29.86,WSW,250,0.0,0.0,97,0.00,,,0.00,weatherlink.com 1.10,2013-09-01 04:47:00,
2013-09-01 01:02:00,62.1,61.0,29.86,WSW,250,0.0,0.0,96,0.00,,,0.00,weatherlink.com 1.10,2013-09-01 05:02:00,
2013-09-01 01:17:00,62.2,61.0,29.86,WSW,250,0.0,0.0,97,0.00,,,0.00,weatherlink.com 1.10,2013-09-01 05:17:00,
2013-09-01 01:32:00,62.4,62.0,29.85,WSW,250,0.0,0.0,97,0.00,,,0.00,weatherlink.com 1.10,2013-09-01 05:32:00,
2013-09-01 01:47:00,62.0,61.0,29.84,WSW,250,0.0,0.0,97,0.00,,,0.00,weatherlink.com 1.10,2013-09-01 05:47:00,
2013-09-01 02:02:00,61.4,61.0,29.84,WSW,250,0.0,0.0,97,0.00,,,0.00,weatherlink.com 1.10,2013-09-01 06:02:00,
2013-09-01 02:17:00,62.3,62.0,29.85,WSW,250,0.0,0.0,98,0.00,,,0.00,weatherlink.com 1.10,2013-09-01 06:17:00,
2013-09-01 02:32:00,62.0,61.0,29.84,WSW,250,0.0,0.0,97,0.00,,,0.00,weatherlink.com 1.10,2013-09-01 06:32:00,
2013-09-01 02:47:00,61.3,61.0,29.84,WSW,250,0.0,0.0,97,0.00,,,0.00,weatherlink.com 1.10,2013-09-01 06:47:00,
2013-09-01 03:02:00,60.8,60.0,29.84,WSW,250,0.0,0.0,97,0.00,,,0.00,weatherlink.com 1.10,2013-09-01 07:02:00,
2013-09-01 03:17:00,60.4,60.0,29.84,WSW,250,0.0,0.0,97,0.01,,,0.01,weatherlink.com 1.10,2013-09-01 07:17:00,
2013-09-01 03:32:00,60.5,60.0,29.84,WSW,250,0.0,0.0,97,0.01,,,0.01,weatherlink.com 1.10,2013-09-01 07:32:00,
2013-09-01 03:47:00,60.1,59.0,29.84,WSW,250,0.0,2.0,97,0.01,,,0.01,weatherlink.com 1.10,2013-09-01 07:47:00,
2013-09-01 04:02:00,60.3,60.0,29.84,WSW,250,0.0,0.0,97,0.01,,,0.01,weatherlink.com 1.10,2013-09-01 08:02:00,
2013-09-01 04:17:00,60.2,59.0,29.84,WSW,250,0.0,1.0,97,0.00,,,0.01,weatherlink.com 1.10,2013-09-01 08:17:00,
2013-09-01 04:32:00,59.9,59.0,29.84,WSW,250,0.0,0.0,97,0.00,,,0.01,weatherlink.com 1.10,2013-09-01 08:32:00,
2013-09-01 04:47:00,60.3,60.0,29.85,WSW,250,0.0,0.0,98,0.00,,,0.01,weatherlink.com 1.10,2013-09-01 08:47:00,
2013-09-01 05:02:00,60.4,60.0,29.85,WSW,250,0.0,2.0,98,0.00,,,0.01,weatherlink.com 1.10,2013-09-01 09:02:00,
2013-09-01 05:17:00,60.1,59.0,29.85,WSW,250,0.0,0.0,97,0.00,,,0.01,weatherlink.com 1.10,2013-09-01 09:17:00,
2013-09-01 05:32:00,59.9,59.0,29.85,WSW,250,0.0,0.0,97,0.00,,,0.01,weatherlink.com 1.10,2013-09-01 09:32:00,
2013-09-01 05:47:00,59.7,59.0,29.86,WSW,250,0.0,1.0,97,0.00,,,0.01,weatherlink.com 1.10,2013-09-01 09:47:00,
2013-09-01 06:02:00,59.6,59.0,29.85,WSW,250,0.0,1.0,98,0.00,,,0.01,weatherlink.com 1.10,2013-09-01 10:02:00,
2013-09-01 06:17:00,59.4,59.0,29.86,WSW,250,0.0,2.0,97,0.00,,,0.01,weatherlink.com 1.10,2013-09-01 10:17:00,
2013-09-01 06:32:00,59.4,59.0,29.85,WSW,250,0.0,0.0,97,0.00,,,0.01,weatherlink.com 1.10,2013-09-01 10:32:00,
2013-09-01 06:47:00,59.3,59.0,29.85,WSW,250,0.0,0.0,97,0.00,,,0.01,weatherlink.com 1.10,2013-09-01 10:47:00,
2013-09-01 07:02:00,59.0,59.0,29.85,WSW,250,0.0,1.0,98,0.00,,,0.01,weatherlink.com 1.10,2013-09-01 11:02:00,
2013-09-01 07:17:00,59.0,59.0,29.85,WSW,250,1.0,2.0,98,0.00,,,0.01,weatherlink.com 1.10,2013-09-01 11:17:00,
2013-09-01 07:32:00,59.2,59.0,29.86,WSW,250,0.0,0.0,98,0.00,,,0.01,weatherlink.com 1.10,2013-09-01 11:32:00,
2013-09-01 07:47:00,60.3,60.0,29.86,WSW,250,0.0,1.0,98,0.00,,,0.01,weatherlink.com 1.10,2013-09-01 11:47:00,
2013-09-01 08:02:00,60.4,60.0,29.86,WSW,250,0.0,0.0,98,0.00,,,0.01,weatherlink.com 1.10,2013-09-01 12:02:00,
2013-09-01 08:17:00,61.8,61.0,29.86,WSW,250,0.0,0.0,98,0.00,,,0.01,weatherlink.com 1.10,2013-09-01 12:17:00,
2013-09-01 08:33:00,63.5,63.0,29.86,WNW,292,0.0,0.0,98,0.00,,,0.01,weatherlink.com 1.10,2013-09-01 12:33:00,
2013-09-01 08:48:00,64.4,64.0,29.87,WNW,292,0.0,0.0,99,0.00,,,0.01,weatherlink.com 1.10,2013-09-01 12:48:00,
2013-09-01 09:03:00,64.9,65.0,29.87,WNW,292,1.0,2.0,99,0.00,,,0.01,weatherlink.com 1.10,2013-09-01 13:03:00,
2013-09-01 09:18:00,65.7,65.0,29.86,WNW,292,0.0,0.0,99,0.00,,,0.01,weatherlink.com 1.10,2013-09-01 13:18:00,
2013-09-01 09:33:00,66.7,66.0,29.86,NE,45,0.0,3.0,99,0.00,,,0.01,weatherlink.com 1.10,2013-09-01 13:33:00,
2013-09-01 09:48:00,67.6,67.0,29.86,WSW,237,0.0,4.0,99,0.00,,,0.01,weatherlink.com 1.10,2013-09-01 13:48:00,
2013-09-01 10:03:00,67.4,67.0,29.86,WSW,237,3.0,5.0,99,0.00,,,0.01,weatherlink.com 1.10,2013-09-01 14:03:00,
2013-09-01 10:18:00,67.8,67.0,29.86,WSW,237,0.0,3.0,97,0.00,,,0.01,weatherlink.com 1.10,2013-09-01 14:18:00,
2013-09-01 10:33:00,68.8,68.0,29.86,WSW,237,0.0,1.0,96,0.00,,,0.01,weatherlink.com 1.10,2013-09-01 14:33:00,
2013-09-01 10:48:00,70.0,68.0,29.86,WSW,237,0.0,0.0,92,0.00,,,0.01,weatherlink.com 1.10,2013-09-01 14:48:00,
2013-09-01 11:03:00,71.2,68.0,29.86,WSW,237,0.0,1.0,89,0.00,,,0.01,weatherlink.com 1.10,2013-09-01 15:03:00,
2013-09-01 11:18:00,71.9,67.0,29.86,SW,228,0.0,5.0,85,0.00,,,0.01,weatherlink.com 1.10,2013-09-01 15:18:00,
2013-09-01 11:33:00,73.2,68.0,29.84,WSW,243,0.0,7.0,83,0.00,,,0.01,weatherlink.com 1.10,2013-09-01 15:33:00,
2013-09-01 11:48:00,74.5,68.0,29.84,SSW,208,4.0,8.0,79,0.00,,,0.01,weatherlink.com 1.10,2013-09-01 15:48:00,
2013-09-01 12:03:00,75.6,68.0,29.84,WSW,249,0.0,6.0,78,0.00,,,0.01,weatherlink.com 1.10,2013-09-01 16:03:00,
2013-09-01 12:18:00,75.7,68.0,29.84,West,271,0.0,5.0,77,0.00,,,0.01,weatherlink.com 1.10,2013-09-01 16:18:00,
2013-09-01 12:33:00,74.7,68.0,29.83,NW,324,6.0,8.0,79,0.00,,,0.01,weatherlink.com 1.10,2013-09-01 16:33:00,
2013-09-01 12:48:00,65.2,63.0,29.87,WNW,284,14.0,18.0,92,0.07,,,0.08,weatherlink.com 1.10,2013-09-01 16:48:00,
2013-09-01 13:04:00,64.6,63.0,29.84,WSW,247,0.0,12.0,95,0.44,,,0.45,weatherlink.com 1.10,2013-09-01 17:04:00,
2013-09-01 13:19:00,64.5,63.0,29.85,WSW,247,0.0,0.0,95,0.72,,,0.73,weatherlink.com 1.10,2013-09-01 17:19:00,
2013-09-01 13:34:00,64.7,64.0,29.84,ENE,62,1.0,3.0,96,0.77,,,0.78,weatherlink.com 1.10,2013-09-01 17:34:00,
2013-09-01 13:49:00,64.9,64.0,29.83,East,98,0.0,1.0,96,0.69,,,0.78,weatherlink.com 1.10,2013-09-01 17:49:00,
2013-09-01 14:04:00,65.6,65.0,29.82,East,98,1.0,2.0,96,0.32,,,0.78,weatherlink.com 1.10,2013-09-01 18:04:00,
2013-09-01 14:19:00,65.9,65.0,29.82,East,98,0.0,0.0,96,0.04,,,0.78,weatherlink.com 1.10,2013-09-01 18:19:00,
2013-09-01 14:34:00,66.8,66.0,29.81,East,98,0.0,1.0,96,0.00,,,0.78,weatherlink.com 1.10,2013-09-01 18:34:00,
2013-09-01 14:49:00,67.6,67.0,29.81,East,98,3.0,3.0,96,0.00,,,0.78,weatherlink.com 1.10,2013-09-01 18:49:00,
2013-09-01 15:04:00,67.7,67.0,29.81,East,98,0.0,1.0,96,0.00,,,0.78,weatherlink.com 1.10,2013-09-01 19:04:00,
2013-09-01 15:19:00,68.2,67.0,29.81,East,98,0.0,0.0,95,0.00,,,0.78,weatherlink.com 1.10,2013-09-01 19:19:00,
2013-09-01 15:34:00,68.9,68.0,29.79,East,98,0.0,0.0,95,0.00,,,0.78,weatherlink.com 1.10,2013-09-01 19:34:00,
2013-09-01 15:49:00,69.3,66.0,29.81,WNW,294,6.0,26.0,90,0.02,,,0.80,weatherlink.com 1.10,2013-09-01 19:49:00,
2013-09-01 16:04:00,67.9,67.0,29.78,West,277,1.0,3.0,95,0.18,,,0.96,weatherlink.com 1.10,2013-09-01 20:04:00,
2013-09-01 16:19:00,69.6,68.0,29.79,WSW,244,0.0,6.0,94,0.18,,,0.96,weatherlink.com 1.10,2013-09-01 20:19:00,
2013-09-01 16:34:00,70.2,67.0,29.79,WSW,254,2.0,8.0,90,0.18,,,0.96,weatherlink.com 1.10,2013-09-01 20:34:00,
2013-09-01 16:49:00,69.7,67.0,29.79,WNW,292,0.0,4.0,92,0.15,,,0.96,weatherlink.com 1.10,2013-09-01 20:49:00,
2013-09-01 17:04:00,69.6,67.0,29.80,WNW,292,0.0,2.0,92,0.00,,,0.96,weatherlink.com 1.10,2013-09-01 21:04:00,
2013-09-01 17:19:00,69.5,68.0,29.79,WNW,292,0.0,0.0,93,0.00,,,0.96,weatherlink.com 1.10,2013-09-01 21:19:00,
2013-09-01 17:34:00,69.1,68.0,29.78,WNW,292,0.0,0.0,95,0.00,,,0.96,weatherlink.com 1.10,2013-09-01 21:34:00,
2013-09-01 17:49:00,69.1,68.0,29.77,WNW,292,0.0,0.0,95,0.00,,,0.96,weatherlink.com 1.10,2013-09-01 21:49:00,
2013-09-01 18:04:00,68.7,67.0,29.76,WNW,292,2.0,4.0,95,0.00,,,0.96,weatherlink.com 1.10,2013-09-01 22:04:00,
2013-09-01 18:19:00,68.7,66.0,29.78,WNW,292,0.0,4.0,92,0.00,,,0.96,weatherlink.com 1.10,2013-09-01 22:19:00,
2013-09-01 18:34:00,69.0,67.0,29.79,WSW,254,7.0,8.0,92,0.00,,,0.96,weatherlink.com 1.10,2013-09-01 22:34:00,
2013-09-01 18:49:00,69.4,67.0,29.80,WSW,251,3.0,4.0,92,0.00,,,0.96,weatherlink.com 1.10,2013-09-01 22:49:00,
2013-09-01 19:04:00,70.2,66.0,29.80,NW,311,0.0,5.0,87,0.00,,,0.96,weatherlink.com 1.10,2013-09-01 23:04:00,
2013-09-01 19:19:00,70.1,67.0,29.80,NW,305,2.0,4.0,88,0.00,,,0.96,weatherlink.com 1.10,2013-09-01 23:19:00,
2013-09-01 19:34:00,69.7,67.0,29.80,NW,305,0.0,0.0,90,0.00,,,0.96,weatherlink.com 1.10,2013-09-01 23:34:00,
2013-09-01 19:49:00,69.1,66.0,29.80,NW,305,0.0,1.0,91,0.00,,,0.96,weatherlink.com 1.10,2013-09-01 23:49:00,
2013-09-01 20:04:00,68.3,66.0,29.80,NW,305,0.0,0.0,93,0.00,,,0.96,weatherlink.com 1.10,2013-09-02 00:04:00,
2013-09-01 20:19:00,67.6,66.0,29.80,NW,305,0.0,0.0,94,0.00,,,0.96,weatherlink.com 1.10,2013-09-02 00:19:00,
2013-09-01 20:34:00,67.3,65.0,29.81,NW,305,0.0,0.0,93,0.00,,,0.96,weatherlink.com 1.10,2013-09-02 00:34:00,
2013-09-01 21:04:00,66.5,65.0,29.82,WSW,242,0.0,2.0,94,0.00,,,0.96,weatherlink.com 1.10,2013-09-02 01:04:00,
2013-09-01 21:19:00,66.3,65.0,29.83,WSW,242,0.0,0.0,95,0.00,,,0.96,weatherlink.com 1.10,2013-09-02 01:19:00,
2013-09-01 21:34:00,65.4,64.0,29.83,WSW,242,0.0,0.0,95,0.00,,,0.96,weatherlink.com 1.10,2013-09-02 01:34:00,
2013-09-01 21:49:00,65.7,65.0,29.83,WSW,242,0.0,0.0,96,0.00,,,0.96,weatherlink.com 1.10,2013-09-02 01:49:00,
2013-09-01 22:04:00,65.5,64.0,29.84,WSW,242,0.0,0.0,95,0.00,,,0.96,weatherlink.com 1.10,2013-09-02 02:04:00,
2013-09-01 22:19:00,65.1,64.0,29.84,WSW,242,0.0,0.0,96,0.00,,,0.96,weatherlink.com 1.10,2013-09-02 02:19:00,
2013-09-01 22:34:00,65.7,65.0,29.84,WSW,242,0.0,0.0,96,0.00,,,0.96,weatherlink.com 1.10,2013-09-02 02:34:00,
2013-09-01 22:49:00,65.2,64.0,29.84,WSW,242,0.0,0.0,96,0.00,,,0.96,weatherlink.com 1.10,2013-09-02 02:49:00,
2013-09-01 23:04:00,64.3,63.0,29.84,SSE,147,0.0,3.0,96,0.00,,,0.96,weatherlink.com 1.10,2013-09-02 03:04:00,
2013-09-01 23:19:00,64.2,63.0,29.84,SSE,147,0.0,0.0,97,0.00,,,0.96,weatherlink.com 1.10,2013-09-02 03:19:00,
2013-09-01 23:34:00,65.0,64.0,29.84,SSE,147,0.0,1.0,97,0.00,,,0.96,weatherlink.com 1.10,2013-09-02 03:34:00,
2013-09-01 23:49:00,64.8,64.0,29.85,SSE,147,0.0,0.0,96,0.00,,,0.96,weatherlink.com 1.10,2013-09-02 03:49:00,